首页
METAR-TAF:

METAR-TAF

机场 :

埃利斯塔, 俄罗斯

纬度: 46-22N, 经度: 044-20E, 海拔: 150米

当前天气观测

该预报发布于34分钟前的12:30 UTC
风速10节,风向
温度 1°C
湿度 69%
气压 1030 hPa
能见度10公里或以上
阴天层高于3000英尺

METAR: URWI 191230Z 09005MPS 9999 OVC030 01/M04 Q1030 R09/010060 NOSIG

时间: 17:04 (13:04 UTC)

预报

该预报发布于2小时和4分钟前的11:00 UTC
预报有效从19日的 12点(UTC)到 19日的 21点(UTC)
风速6节,风向,有时为17节阵风
能见度10公里或以上
多云层高于1500英尺
短暂存在
从 19日的 12点(UTC)到 19日的 21点(UTC)
能見度: 3100
多云层高于1100英尺
阴天层高于2000英尺
小雪, 轻雾

TAF: URWI 191100Z 1912/1921 09003G09MPS 9999 BKN015 TEMPO 1912/1921 3100 -SN BR BKN011 OVC020

超过4000个机场的气象观测和天气预报(METAR&TAF报告)。

可查询的气象台以黄色和红色小点在地图上表示。

将鼠标移到小点上方,可查看气象台名称。

然后点击查看天气观测和预报。

如需切换地图:点击带黑十字的绿色按钮放大地图;点击带横线的绿色按钮缩小地图;或者点击绿色箭头查看邻近地区的地图。


METAR-TAF: